createdAt,value
2023-08-12T00:04:16.545Z,19.55
2023-08-12T00:09:19.384Z,17.77
2023-08-12T00:14:22.195Z,16.82
2023-08-12T00:19:28.740Z,16.26
2023-08-12T00:24:31.783Z,15.82
2023-08-12T00:29:34.569Z,15.42
2023-08-12T00:34:37.755Z,15.14
2023-08-12T00:39:40.642Z,14.91
2023-08-12T00:44:43.468Z,14.71
2023-08-12T00:49:46.900Z,15.76
2023-08-12T00:54:49.802Z,18.81
2023-08-12T00:59:52.855Z,19.25
2023-08-12T01:04:55.662Z,17.43
2023-08-12T01:09:58.517Z,16.33
2023-08-12T01:15:18.397Z,15.66
2023-08-12T01:20:28.425Z,15.15
2023-08-12T01:25:31.155Z,14.80
2023-08-12T01:30:38.995Z,14.54
2023-08-12T01:35:50.475Z,15.57
2023-08-12T01:40:53.685Z,18.54
2023-08-12T01:45:56.704Z,18.90
2023-08-12T01:50:59.961Z,17.08
2023-08-12T01:56:02.747Z,16.06
2023-08-12T02:01:05.499Z,15.43
2023-08-12T02:06:08.362Z,14.95
2023-08-12T02:11:11.548Z,14.51
2023-08-12T02:16:14.311Z,14.15
2023-08-12T02:21:17.717Z,15.16
2023-08-12T02:26:21.832Z,18.13
2023-08-12T02:31:24.649Z,18.12
2023-08-12T02:36:28.067Z,16.46
2023-08-12T02:41:30.888Z,15.57
2023-08-12T02:46:33.710Z,15.03
2023-08-12T02:51:37.434Z,14.55
2023-08-12T02:56:41.317Z,14.18
2023-08-12T03:01:44.164Z,15.18
2023-08-12T03:06:47.477Z,18.31
2023-08-12T03:11:51.228Z,18.70
2023-08-12T03:16:54.065Z,16.78
2023-08-12T03:21:56.870Z,15.66
2023-08-12T03:26:59.691Z,14.95
2023-08-12T03:32:02.584Z,14.41
2023-08-12T03:37:05.634Z,14.01
2023-08-12T03:42:08.479Z,15.06
2023-08-12T03:47:12.251Z,18.00
2023-08-12T03:52:15.546Z,18.32
2023-08-12T03:57:18.290Z,16.52
2023-08-12T04:02:21.125Z,15.50
2023-08-12T04:07:24.011Z,14.88
2023-08-12T04:12:26.833Z,14.39
2023-08-12T04:17:29.596Z,15.29
2023-08-12T04:22:32.417Z,18.19
2023-08-12T04:27:35.578Z,18.58
2023-08-12T04:32:38.401Z,16.88
2023-08-12T04:37:41.618Z,15.90
2023-08-12T04:42:44.342Z,15.34
2023-08-12T04:47:47.319Z,15.00
2023-08-12T04:52:51.270Z,14.79
2023-08-12T04:57:55.137Z,15.83
2023-08-12T05:02:58.103Z,18.78
2023-08-12T05:08:01.413Z,18.54
2023-08-12T05:13:04.468Z,17.10
2023-08-12T05:18:07.623Z,16.38
2023-08-12T05:23:10.524Z,16.00
2023-08-12T05:28:13.323Z,15.72
2023-08-12T05:33:16.422Z,15.48
2023-08-12T05:38:19.291Z,16.57
2023-08-12T05:43:22.097Z,19.71
2023-08-12T05:48:25.213Z,20.09
2023-08-12T05:53:28.070Z,18.66
2023-08-12T05:58:30.853Z,17.98
2023-08-12T06:03:33.661Z,17.68
2023-08-12T06:08:36.913Z,17.51
2023-08-12T06:13:39.685Z,17.41
2023-08-12T06:18:42.438Z,17.40
2023-08-12T06:23:45.390Z,17.45
2023-08-12T06:28:48.115Z,17.55
2023-08-12T06:33:50.867Z,17.72
2023-08-12T06:38:54.158Z,18.00
2023-08-12T06:43:57.399Z,18.36
2023-08-12T06:49:00.761Z,18.74
2023-08-12T06:54:03.787Z,19.08
2023-08-12T06:59:07.145Z,19.41
2023-08-12T07:04:10.018Z,19.76
2023-08-12T07:09:13.033Z,20.07
2023-08-12T07:14:17.175Z,20.38
2023-08-12T07:19:20.412Z,20.61
2023-08-12T07:24:23.962Z,20.85
2023-08-12T07:29:27.243Z,21.17
2023-08-12T07:34:31.500Z,21.47
2023-08-12T07:39:35.168Z,21.74
2023-08-12T07:44:38.057Z,21.97
2023-08-12T07:49:42.874Z,22.03
2023-08-12T07:54:45.995Z,22.05
2023-08-12T07:59:50.388Z,22.14
2023-08-12T08:04:53.338Z,22.38
2023-08-12T08:09:59.394Z,22.71
2023-08-12T08:15:04.358Z,22.96
2023-08-12T08:20:08.025Z,23.23
2023-08-12T08:25:11.526Z,23.38
2023-08-12T08:30:14.570Z,23.45
2023-08-12T08:35:17.741Z,23.57
2023-08-12T08:40:21.873Z,23.93
2023-08-12T08:45:26.706Z,24.29
2023-08-12T08:50:33.534Z,24.51
2023-08-12T08:55:38.674Z,24.84
2023-08-12T09:00:42.724Z,25.11
2023-08-12T09:05:54.024Z,25.37
2023-08-12T09:10:58.540Z,25.46
2023-08-12T09:16:02.389Z,25.68
2023-08-12T09:21:06.743Z,25.97
2023-08-12T09:26:19.217Z,26.28
2023-08-12T09:31:27.957Z,26.47
2023-08-12T09:36:32.222Z,26.69
2023-08-12T09:41:36.873Z,26.89
2023-08-12T09:46:40.211Z,27.04
2023-08-12T09:51:45.952Z,27.12
2023-08-12T09:56:50.463Z,27.28
2023-08-12T10:01:56.915Z,27.56
2023-08-12T10:07:01.743Z,27.71
2023-08-12T10:12:06.911Z,27.82
2023-08-12T10:17:11.009Z,27.97
2023-08-12T10:22:15.985Z,28.07
2023-08-12T10:27:19.805Z,28.20
2023-08-12T10:32:22.967Z,28.36
2023-08-12T10:37:27.672Z,28.50
2023-08-12T10:42:48.251Z,28.63
2023-08-12T10:48:00.836Z,28.77
2023-08-12T10:53:33.144Z,28.91
2023-08-12T10:58:45.625Z,29.13
2023-08-12T11:03:51.793Z,29.16
2023-08-12T11:08:55.049Z,29.10
2023-08-12T11:13:58.420Z,29.15
2023-08-12T11:19:01.310Z,29.20
2023-08-12T11:24:05.574Z,29.31
2023-08-12T11:29:12.557Z,29.47
2023-08-12T11:34:16.928Z,29.46
2023-08-12T11:39:19.960Z,29.43
2023-08-12T11:44:24.214Z,29.52
2023-08-12T11:49:26.988Z,29.61
2023-08-12T11:54:30.269Z,29.66
2023-08-12T11:59:33.286Z,29.64
2023-08-12T12:04:36.233Z,29.74
2023-08-12T12:09:43.947Z,29.81
2023-08-12T12:14:48.218Z,29.67
2023-08-12T12:19:59.876Z,29.54
2023-08-12T12:25:11.469Z,29.71
2023-08-12T12:30:16.418Z,29.91
2023-08-12T12:35:20.063Z,30.00
2023-08-12T12:40:22.988Z,29.98
2023-08-12T12:45:29.181Z,29.91
2023-08-12T12:50:34.633Z,30.09
2023-08-12T12:55:45.627Z,30.31
2023-08-12T13:00:56.702Z,30.42
2023-08-12T13:06:08.696Z,30.32
2023-08-12T13:11:12.590Z,30.28
2023-08-12T13:16:16.094Z,30.30
2023-08-12T13:21:21.100Z,30.34
2023-08-12T13:26:27.401Z,30.42
2023-08-12T13:31:30.701Z,30.35
2023-08-12T13:36:35.683Z,30.37
2023-08-12T13:41:44.846Z,30.47
2023-08-12T13:46:47.801Z,30.53
2023-08-12T13:51:54.025Z,30.50
2023-08-12T13:57:00.798Z,30.51
2023-08-12T14:02:04.162Z,30.61
2023-08-12T14:07:07.450Z,30.74
2023-08-12T14:12:25.216Z,30.80
2023-08-12T14:17:29.196Z,30.75
2023-08-12T14:22:32.494Z,30.73
2023-08-12T14:27:35.608Z,30.75
2023-08-12T14:32:38.496Z,30.92
2023-08-12T14:37:41.424Z,31.27
2023-08-12T14:42:44.208Z,31.47
2023-08-12T14:47:48.707Z,31.66
2023-08-12T14:52:51.484Z,31.81
2023-08-12T14:57:54.239Z,31.96
2023-08-12T15:02:57.010Z,32.30
2023-08-12T15:08:01.056Z,32.52
2023-08-12T15:13:05.653Z,32.75
2023-08-12T15:18:08.584Z,32.90
2023-08-12T15:23:12.048Z,33.07
2023-08-12T15:28:14.968Z,33.28
2023-08-12T15:33:18.068Z,33.42
2023-08-12T15:38:24.989Z,33.63
2023-08-12T15:43:29.199Z,33.90
2023-08-12T15:48:32.218Z,34.16
2023-08-12T15:53:36.579Z,34.28
2023-08-12T15:58:40.338Z,34.29
2023-08-12T16:03:43.526Z,34.13
2023-08-12T16:08:56.882Z,33.80
2023-08-12T16:14:11.344Z,33.27
2023-08-12T16:19:14.857Z,32.78
2023-08-12T16:24:17.703Z,32.30
2023-08-12T16:29:20.570Z,31.94
2023-08-12T16:34:23.905Z,31.67
2023-08-12T16:39:26.669Z,31.37
2023-08-12T16:44:29.819Z,31.07
2023-08-12T16:49:32.616Z,30.79
2023-08-12T16:54:35.449Z,30.51
2023-08-12T16:59:38.298Z,30.20
2023-08-12T17:04:41.521Z,29.96
2023-08-12T17:09:47.229Z,29.70
2023-08-12T17:14:50.582Z,29.41
2023-08-12T17:19:53.355Z,29.17
2023-08-12T17:24:56.175Z,28.94
2023-08-12T17:29:59.007Z,28.72
2023-08-12T17:35:01.872Z,28.49
2023-08-12T17:40:06.871Z,28.31
2023-08-12T17:45:09.792Z,28.11
2023-08-12T17:50:13.233Z,27.95
2023-08-12T17:55:16.200Z,27.76
2023-08-12T18:00:21.414Z,27.58
2023-08-12T18:05:25.117Z,27.39
2023-08-12T18:10:28.433Z,27.21
2023-08-12T18:15:31.275Z,27.02
2023-08-12T18:20:34.141Z,26.84
2023-08-12T18:25:36.955Z,26.67
2023-08-12T18:30:39.757Z,26.46
2023-08-12T18:35:42.601Z,26.20
2023-08-12T18:40:45.365Z,25.96
2023-08-12T18:45:48.109Z,25.76
2023-08-12T18:50:50.931Z,25.59
2023-08-12T18:55:54.138Z,25.43
2023-08-12T19:00:57.008Z,25.27
2023-08-12T19:06:01.055Z,25.12
2023-08-12T19:11:04.460Z,24.98
2023-08-12T19:16:07.270Z,24.84
2023-08-12T19:21:10.141Z,24.71
2023-08-12T19:26:12.873Z,24.59
2023-08-12T19:31:16.350Z,24.46
2023-08-12T19:36:19.130Z,24.33
2023-08-12T19:41:22.607Z,24.19
2023-08-12T19:46:26.108Z,24.04
2023-08-12T19:51:29.950Z,23.90
2023-08-12T19:56:36.379Z,23.77
2023-08-12T20:01:44.040Z,23.61
2023-08-12T20:06:49.142Z,23.44
2023-08-12T20:11:52.329Z,23.30
2023-08-12T20:16:55.400Z,23.22
2023-08-12T20:22:00.439Z,23.12
2023-08-12T20:27:04.092Z,22.98
2023-08-12T20:32:07.018Z,22.86
2023-08-12T20:37:09.960Z,22.73
2023-08-12T20:42:12.721Z,22.61
2023-08-12T20:47:15.926Z,22.49
2023-08-12T20:52:19.032Z,22.39
2023-08-12T20:57:21.756Z,22.33
2023-08-12T21:02:24.546Z,22.26
2023-08-12T21:07:27.659Z,22.17
2023-08-12T21:12:30.421Z,22.10
2023-08-12T21:17:33.275Z,22.07
2023-08-12T21:22:36.030Z,22.01
2023-08-12T21:27:38.791Z,21.96
2023-08-12T21:32:41.652Z,21.93
2023-08-12T21:37:44.455Z,21.92
2023-08-12T21:42:47.495Z,21.89
2023-08-12T21:47:50.388Z,21.82
2023-08-12T21:52:53.223Z,21.77
2023-08-12T21:57:56.029Z,21.72
2023-08-12T22:02:59.334Z,21.68
2023-08-12T22:08:02.705Z,21.63
2023-08-12T22:13:06.329Z,21.57
2023-08-12T22:18:09.265Z,21.52
2023-08-12T22:23:12.155Z,21.48
2023-08-12T22:28:15.096Z,21.45
2023-08-12T22:33:17.878Z,21.44
2023-08-12T22:38:21.116Z,21.40
2023-08-12T22:43:24.039Z,21.35
2023-08-12T22:48:26.930Z,21.30
2023-08-12T22:53:30.036Z,21.26
2023-08-12T22:58:32.948Z,21.25
2023-08-12T23:03:35.821Z,21.25
2023-08-12T23:08:38.592Z,21.22
2023-08-12T23:13:41.351Z,21.19
2023-08-12T23:18:44.448Z,21.16
2023-08-12T23:23:47.281Z,21.13
2023-08-12T23:28:50.089Z,21.08
2023-08-12T23:33:52.860Z,21.02
2023-08-12T23:38:55.698Z,20.97
2023-08-12T23:44:00.259Z,20.92
2023-08-12T23:49:03.085Z,20.90
2023-08-12T23:54:05.833Z,20.90
2023-08-12T23:59:08.580Z,20.92
